sensor_id;sensor_type;location;lat;lon;timestamp;temperature;humidity
51029;DHT22;37054;52.054;8.600;2022-12-10T00:01:19;4.90;58.60
51029;DHT22;37054;52.054;8.600;2022-12-10T00:03:45;5.00;58.70
51029;DHT22;37054;52.054;8.600;2022-12-10T00:06:11;5.00;58.70
51029;DHT22;37054;52.054;8.600;2022-12-10T00:08:37;5.10;58.60
51029;DHT22;37054;52.054;8.600;2022-12-10T00:11:03;5.10;58.60
51029;DHT22;37054;52.054;8.600;2022-12-10T00:13:29;5.10;58.50
51029;DHT22;37054;52.054;8.600;2022-12-10T00:15:55;5.20;58.50
51029;DHT22;37054;52.054;8.600;2022-12-10T00:18:21;5.20;58.60
51029;DHT22;37054;52.054;8.600;2022-12-10T00:20:46;5.30;58.60
51029;DHT22;37054;52.054;8.600;2022-12-10T00:23:11;5.30;58.60
51029;DHT22;37054;52.054;8.600;2022-12-10T00:25:37;5.30;58.50
51029;DHT22;37054;52.054;8.600;2022-12-10T00:28:02;5.40;58.60
51029;DHT22;37054;52.054;8.600;2022-12-10T00:30:28;5.40;58.70
51029;DHT22;37054;52.054;8.600;2022-12-10T00:32:54;5.40;58.70
51029;DHT22;37054;52.054;8.600;2022-12-10T00:35:19;5.40;58.60
51029;DHT22;37054;52.054;8.600;2022-12-10T00:37:44;5.40;58.60
51029;DHT22;37054;52.054;8.600;2022-12-10T00:40:10;5.50;58.60
51029;DHT22;37054;52.054;8.600;2022-12-10T00:42:36;5.50;58.50
51029;DHT22;37054;52.054;8.600;2022-12-10T00:45:02;5.50;58.60
51029;DHT22;37054;52.054;8.600;2022-12-10T00:47:27;5.50;58.60
51029;DHT22;37054;52.054;8.600;2022-12-10T00:49:53;5.50;58.60
51029;DHT22;37054;52.054;8.600;2022-12-10T00:52:18;5.60;58.60
51029;DHT22;37054;52.054;8.600;2022-12-10T00:54:44;5.60;58.60
51029;DHT22;37054;52.054;8.600;2022-12-10T00:57:09;5.60;58.50
51029;DHT22;37054;52.054;8.600;2022-12-10T00:59:35;5.60;58.50
51029;DHT22;37054;52.054;8.600;2022-12-10T01:02:00;5.60;58.60
51029;DHT22;37054;52.054;8.600;2022-12-10T01:04:26;5.70;58.70
51029;DHT22;37054;52.054;8.600;2022-12-10T01:06:52;5.70;58.60
51029;DHT22;37054;52.054;8.600;2022-12-10T01:09:19;5.60;58.50
51029;DHT22;37054;52.054;8.600;2022-12-10T01:11:45;5.70;58.50
51029;DHT22;37054;52.054;8.600;2022-12-10T01:14:13;5.70;58.50
51029;DHT22;37054;52.054;8.600;2022-12-10T01:16:39;5.70;58.50
51029;DHT22;37054;52.054;8.600;2022-12-10T01:19:04;5.70;58.40
51029;DHT22;37054;52.054;8.600;2022-12-10T01:21:30;5.80;58.50
51029;DHT22;37054;52.054;8.600;2022-12-10T01:23:56;5.80;58.50
51029;DHT22;37054;52.054;8.600;2022-12-10T01:26:23;5.90;58.50
51029;DHT22;37054;52.054;8.600;2022-12-10T01:28:49;5.80;58.40
51029;DHT22;37054;52.054;8.600;2022-12-10T01:31:28;5.90;58.40
51029;DHT22;37054;52.054;8.600;2022-12-10T01:33:54;5.90;58.50
51029;DHT22;37054;52.054;8.600;2022-12-10T01:36:22;5.90;58.40
51029;DHT22;37054;52.054;8.600;2022-12-10T01:38:48;5.90;58.30
51029;DHT22;37054;52.054;8.600;2022-12-10T01:41:15;5.90;58.20
51029;DHT22;37054;52.054;8.600;2022-12-10T01:46:37;5.80;58.10
51029;DHT22;37054;52.054;8.600;2022-12-10T01:49:04;5.80;58.20
51029;DHT22;37054;52.054;8.600;2022-12-10T01:51:30;5.80;58.40
51029;DHT22;37054;52.054;8.600;2022-12-10T01:53:59;5.90;58.40
51029;DHT22;37054;52.054;8.600;2022-12-10T01:56:25;5.90;58.40
51029;DHT22;37054;52.054;8.600;2022-12-10T01:58:51;5.90;58.40
51029;DHT22;37054;52.054;8.600;2022-12-10T02:01:24;5.90;58.40
51029;DHT22;37054;52.054;8.600;2022-12-10T02:03:52;5.90;58.30
51029;DHT22;37054;52.054;8.600;2022-12-10T02:06:35;5.90;58.30
51029;DHT22;37054;52.054;8.600;2022-12-10T02:09:09;5.90;58.30
51029;DHT22;37054;52.054;8.600;2022-12-10T02:11:41;5.90;58.50
51029;DHT22;37054;52.054;8.600;2022-12-10T02:16:55;5.90;58.50
51029;DHT22;37054;52.054;8.600;2022-12-10T02:21:50;6.00;58.40
51029;DHT22;37054;52.054;8.600;2022-12-10T02:24:18;6.00;58.50
51029;DHT22;37054;52.054;8.600;2022-12-10T02:29:21;6.00;58.40
51029;DHT22;37054;52.054;8.600;2022-12-10T02:32:11;6.00;58.40
51029;DHT22;37054;52.054;8.600;2022-12-10T02:34:36;6.00;58.40
51029;DHT22;37054;52.054;8.600;2022-12-10T02:37:04;6.00;58.40
51029;DHT22;37054;52.054;8.600;2022-12-10T02:39:32;6.00;58.50
51029;DHT22;37054;52.054;8.600;2022-12-10T02:42:02;6.10;58.50
51029;DHT22;37054;52.054;8.600;2022-12-10T02:44:29;6.10;58.50
51029;DHT22;37054;52.054;8.600;2022-12-10T02:46:55;6.10;58.40
51029;DHT22;37054;52.054;8.600;2022-12-10T02:49:22;6.10;58.30
51029;DHT22;37054;52.054;8.600;2022-12-10T02:51:48;6.10;58.40
51029;DHT22;37054;52.054;8.600;2022-12-10T02:56:58;6.20;58.60
51029;DHT22;37054;52.054;8.600;2022-12-10T02:59:29;6.20;58.60
51029;DHT22;37054;52.054;8.600;2022-12-10T03:04:30;6.20;58.60
51029;DHT22;37054;52.054;8.600;2022-12-10T03:07:00;6.20;58.60
51029;DHT22;37054;52.054;8.600;2022-12-10T03:09:52;6.20;58.60
51029;DHT22;37054;52.054;8.600;2022-12-10T03:12:19;6.20;58.60
51029;DHT22;37054;52.054;8.600;2022-12-10T03:14:47;6.30;58.60
51029;DHT22;37054;52.054;8.600;2022-12-10T03:17:13;6.30;58.60
51029;DHT22;37054;52.054;8.600;2022-12-10T03:19:42;6.30;58.70
51029;DHT22;37054;52.054;8.600;2022-12-10T03:22:08;6.40;58.60
51029;DHT22;37054;52.054;8.600;2022-12-10T03:24:35;6.40;58.60
51029;DHT22;37054;52.054;8.600;2022-12-10T03:27:00;6.40;58.60
51029;DHT22;37054;52.054;8.600;2022-12-10T03:29:27;6.40;58.60
51029;DHT22;37054;52.054;8.600;2022-12-10T03:31:54;6.40;58.60
51029;DHT22;37054;52.054;8.600;2022-12-10T03:34:20;6.40;58.50
51029;DHT22;37054;52.054;8.600;2022-12-10T03:36:45;6.50;58.50
51029;DHT22;37054;52.054;8.600;2022-12-10T03:39:12;6.50;58.50
51029;DHT22;37054;52.054;8.600;2022-12-10T03:41:38;6.50;58.50
51029;DHT22;37054;52.054;8.600;2022-12-10T03:44:03;6.50;58.50
51029;DHT22;37054;52.054;8.600;2022-12-10T03:46:30;6.50;58.40
51029;DHT22;37054;52.054;8.600;2022-12-10T03:48:56;6.50;58.50
51029;DHT22;37054;52.054;8.600;2022-12-10T03:51:22;6.50;58.50
51029;DHT22;37054;52.054;8.600;2022-12-10T03:53:48;6.50;58.40
51029;DHT22;37054;52.054;8.600;2022-12-10T03:56:17;6.50;58.40
51029;DHT22;37054;52.054;8.600;2022-12-10T03:58:42;6.50;58.40
51029;DHT22;37054;52.054;8.600;2022-12-10T04:01:08;6.50;58.30
51029;DHT22;37054;52.054;8.600;2022-12-10T04:03:34;6.50;58.30
51029;DHT22;37054;52.054;8.600;2022-12-10T04:06:01;6.40;58.20
51029;DHT22;37054;52.054;8.600;2022-12-10T04:08:26;6.40;58.40
51029;DHT22;37054;52.054;8.600;2022-12-10T04:10:52;6.40;58.50
51029;DHT22;37054;52.054;8.600;2022-12-10T04:13:17;6.40;58.60
51029;DHT22;37054;52.054;8.600;2022-12-10T04:16:01;6.50;58.70
51029;DHT22;37054;52.054;8.600;2022-12-10T04:18:45;6.50;58.70
51029;DHT22;37054;52.054;8.600;2022-12-10T04:21:11;6.50;58.70
51029;DHT22;37054;52.054;8.600;2022-12-10T04:23:55;6.50;58.70
51029;DHT22;37054;52.054;8.600;2022-12-10T04:26:39;6.50;58.80
51029;DHT22;37054;52.054;8.600;2022-12-10T04:29:17;6.50;58.80
51029;DHT22;37054;52.054;8.600;2022-12-10T04:31:42;6.50;58.70
51029;DHT22;37054;52.054;8.600;2022-12-10T04:34:08;6.50;58.60
51029;DHT22;37054;52.054;8.600;2022-12-10T04:36:33;6.50;58.60
51029;DHT22;37054;52.054;8.600;2022-12-10T04:38:59;6.50;58.70
51029;DHT22;37054;52.054;8.600;2022-12-10T04:41:24;6.50;58.60
51029;DHT22;37054;52.054;8.600;2022-12-10T04:43:51;6.50;58.60
51029;DHT22;37054;52.054;8.600;2022-12-10T04:46:17;6.60;58.60
51029;DHT22;37054;52.054;8.600;2022-12-10T04:48:42;6.50;58.60
51029;DHT22;37054;52.054;8.600;2022-12-10T04:51:08;6.60;58.60
51029;DHT22;37054;52.054;8.600;2022-12-10T04:53:33;6.60;58.60
51029;DHT22;37054;52.054;8.600;2022-12-10T04:55:59;6.50;58.60
51029;DHT22;37054;52.054;8.600;2022-12-10T04:58:26;6.50;58.70
51029;DHT22;37054;52.054;8.600;2022-12-10T05:01:03;6.50;58.60
51029;DHT22;37054;52.054;8.600;2022-12-10T05:03:28;6.50;58.60
51029;DHT22;37054;52.054;8.600;2022-12-10T05:05:54;6.50;58.60
51029;DHT22;37054;52.054;8.600;2022-12-10T05:08:20;6.60;58.70
51029;DHT22;37054;52.054;8.600;2022-12-10T05:10:45;6.60;58.60
51029;DHT22;37054;52.054;8.600;2022-12-10T05:13:10;6.70;58.60
51029;DHT22;37054;52.054;8.600;2022-12-10T05:15:39;6.60;58.60
51029;DHT22;37054;52.054;8.600;2022-12-10T05:18:04;6.70;58.50
51029;DHT22;37054;52.054;8.600;2022-12-10T05:20:30;6.70;58.40
51029;DHT22;37054;52.054;8.600;2022-12-10T05:22:56;6.70;58.40
51029;DHT22;37054;52.054;8.600;2022-12-10T05:25:40;6.70;58.50
51029;DHT22;37054;52.054;8.600;2022-12-10T05:28:21;6.70;58.60
51029;DHT22;37054;52.054;8.600;2022-12-10T05:30:47;6.70;58.50
51029;DHT22;37054;52.054;8.600;2022-12-10T05:33:13;6.80;58.40
51029;DHT22;37054;52.054;8.600;2022-12-10T05:35:39;6.70;58.30
51029;DHT22;37054;52.054;8.600;2022-12-10T05:38:06;6.70;58.30
51029;DHT22;37054;52.054;8.600;2022-12-10T05:40:35;6.70;58.20
51029;DHT22;37054;52.054;8.600;2022-12-10T05:43:01;6.70;58.20
51029;DHT22;37054;52.054;8.600;2022-12-10T05:45:26;6.70;58.30
51029;DHT22;37054;52.054;8.600;2022-12-10T05:47:52;6.70;58.30
51029;DHT22;37054;52.054;8.600;2022-12-10T05:50:17;6.70;58.30
51029;DHT22;37054;52.054;8.600;2022-12-10T05:52:43;6.70;58.40
51029;DHT22;37054;52.054;8.600;2022-12-10T05:55:08;6.70;58.40
51029;DHT22;37054;52.054;8.600;2022-12-10T05:57:35;6.70;58.40
51029;DHT22;37054;52.054;8.600;2022-12-10T06:00:00;6.80;58.50
51029;DHT22;37054;52.054;8.600;2022-12-10T06:02:26;6.80;58.60
51029;DHT22;37054;52.054;8.600;2022-12-10T06:04:51;6.80;58.60
51029;DHT22;37054;52.054;8.600;2022-12-10T06:07:17;6.80;58.70
51029;DHT22;37054;52.054;8.600;2022-12-10T06:09:42;6.80;58.70
51029;DHT22;37054;52.054;8.600;2022-12-10T06:12:08;6.80;58.70
51029;DHT22;37054;52.054;8.600;2022-12-10T06:14:33;6.80;58.70
51029;DHT22;37054;52.054;8.600;2022-12-10T06:16:59;6.80;58.60
51029;DHT22;37054;52.054;8.600;2022-12-10T06:19:24;6.90;58.50
51029;DHT22;37054;52.054;8.600;2022-12-10T06:21:50;6.90;58.50
51029;DHT22;37054;52.054;8.600;2022-12-10T06:24:15;6.80;58.60
51029;DHT22;37054;52.054;8.600;2022-12-10T06:26:40;6.90;58.60
51029;DHT22;37054;52.054;8.600;2022-12-10T06:29:06;6.90;58.60
51029;DHT22;37054;52.054;8.600;2022-12-10T06:31:31;6.90;58.60
51029;DHT22;37054;52.054;8.600;2022-12-10T06:33:57;6.90;58.60
51029;DHT22;37054;52.054;8.600;2022-12-10T06:36:22;6.90;58.60
51029;DHT22;37054;52.054;8.600;2022-12-10T06:38:48;6.90;58.50
51029;DHT22;37054;52.054;8.600;2022-12-10T06:41:17;7.00;58.60
51029;DHT22;37054;52.054;8.600;2022-12-10T06:43:43;7.00;58.60
51029;DHT22;37054;52.054;8.600;2022-12-10T06:46:09;6.90;58.60
51029;DHT22;37054;52.054;8.600;2022-12-10T06:48:35;6.90;58.40
51029;DHT22;37054;52.054;8.600;2022-12-10T06:51:01;6.90;58.40
51029;DHT22;37054;52.054;8.600;2022-12-10T06:53:27;6.90;58.40
51029;DHT22;37054;52.054;8.600;2022-12-10T06:55:52;6.90;58.40
51029;DHT22;37054;52.054;8.600;2022-12-10T06:58:18;6.90;58.60
51029;DHT22;37054;52.054;8.600;2022-12-10T07:00:43;6.90;58.60
51029;DHT22;37054;52.054;8.600;2022-12-10T07:03:09;6.90;58.50
51029;DHT22;37054;52.054;8.600;2022-12-10T07:05:34;6.90;58.50
51029;DHT22;37054;52.054;8.600;2022-12-10T07:08:00;6.90;58.60
51029;DHT22;37054;52.054;8.600;2022-12-10T07:10:25;6.90;58.60
51029;DHT22;37054;52.054;8.600;2022-12-10T07:12:51;6.90;58.70
51029;DHT22;37054;52.054;8.600;2022-12-10T07:15:16;6.90;58.70
51029;DHT22;37054;52.054;8.600;2022-12-10T07:17:42;6.90;58.60
51029;DHT22;37054;52.054;8.600;2022-12-10T07:20:07;6.80;58.70
51029;DHT22;37054;52.054;8.600;2022-12-10T07:22:33;6.80;58.80
51029;DHT22;37054;52.054;8.600;2022-12-10T07:24:58;6.80;58.70
51029;DHT22;37054;52.054;8.600;2022-12-10T07:27:24;6.80;58.80
51029;DHT22;37054;52.054;8.600;2022-12-10T07:29:49;6.90;58.70
51029;DHT22;37054;52.054;8.600;2022-12-10T07:32:15;6.90;58.70
51029;DHT22;37054;52.054;8.600;2022-12-10T07:34:40;6.90;58.60
51029;DHT22;37054;52.054;8.600;2022-12-10T07:37:05;6.90;58.60
51029;DHT22;37054;52.054;8.600;2022-12-10T07:39:32;6.90;58.60
51029;DHT22;37054;52.054;8.600;2022-12-10T07:41:57;6.90;58.70
51029;DHT22;37054;52.054;8.600;2022-12-10T07:44:23;6.90;58.80
51029;DHT22;37054;52.054;8.600;2022-12-10T07:46:50;7.00;58.60
51029;DHT22;37054;52.054;8.600;2022-12-10T07:49:16;7.00;58.60
51029;DHT22;37054;52.054;8.600;2022-12-10T07:51:45;7.00;58.60
51029;DHT22;37054;52.054;8.600;2022-12-10T07:54:11;7.00;58.70
51029;DHT22;37054;52.054;8.600;2022-12-10T07:56:37;7.00;58.80
51029;DHT22;37054;52.054;8.600;2022-12-10T07:59:02;7.10;58.80
51029;DHT22;37054;52.054;8.600;2022-12-10T08:01:27;7.10;58.80
51029;DHT22;37054;52.054;8.600;2022-12-10T08:03:53;7.10;58.80
51029;DHT22;37054;52.054;8.600;2022-12-10T08:06:21;7.10;58.90
51029;DHT22;37054;52.054;8.600;2022-12-10T08:08:47;7.10;58.90
51029;DHT22;37054;52.054;8.600;2022-12-10T08:11:13;7.10;58.80
51029;DHT22;37054;52.054;8.600;2022-12-10T08:13:39;7.10;58.90
51029;DHT22;37054;52.054;8.600;2022-12-10T08:16:05;7.10;58.90
51029;DHT22;37054;52.054;8.600;2022-12-10T08:18:32;7.10;58.80
51029;DHT22;37054;52.054;8.600;2022-12-10T08:20:57;7.20;58.80
51029;DHT22;37054;52.054;8.600;2022-12-10T08:23:23;7.20;58.90
51029;DHT22;37054;52.054;8.600;2022-12-10T08:25:48;7.20;58.90
51029;DHT22;37054;52.054;8.600;2022-12-10T08:28:14;7.20;59.00
51029;DHT22;37054;52.054;8.600;2022-12-10T08:30:39;7.20;59.00
51029;DHT22;37054;52.054;8.600;2022-12-10T08:33:05;7.20;59.00
51029;DHT22;37054;52.054;8.600;2022-12-10T08:35:30;7.30;59.10
51029;DHT22;37054;52.054;8.600;2022-12-10T08:37:56;7.30;59.00
51029;DHT22;37054;52.054;8.600;2022-12-10T08:40:21;7.30;59.10
51029;DHT22;37054;52.054;8.600;2022-12-10T08:42:47;7.40;59.00
51029;DHT22;37054;52.054;8.600;2022-12-10T08:45:13;7.40;59.00
51029;DHT22;37054;52.054;8.600;2022-12-10T08:47:38;7.40;59.00
51029;DHT22;37054;52.054;8.600;2022-12-10T08:50:04;7.40;59.10
51029;DHT22;37054;52.054;8.600;2022-12-10T08:52:29;7.50;59.10
51029;DHT22;37054;52.054;8.600;2022-12-10T08:54:55;7.50;59.10
51029;DHT22;37054;52.054;8.600;2022-12-10T08:57:21;7.60;59.00
51029;DHT22;37054;52.054;8.600;2022-12-10T08:59:46;7.60;59.00
51029;DHT22;37054;52.054;8.600;2022-12-10T09:02:11;7.60;59.00
51029;DHT22;37054;52.054;8.600;2022-12-10T09:04:37;7.70;59.00
51029;DHT22;37054;52.054;8.600;2022-12-10T09:07:04;7.70;59.00
51029;DHT22;37054;52.054;8.600;2022-12-10T09:09:30;7.80;58.80
51029;DHT22;37054;52.054;8.600;2022-12-10T09:11:56;7.80;58.70
51029;DHT22;37054;52.054;8.600;2022-12-10T09:14:22;7.80;58.50
51029;DHT22;37054;52.054;8.600;2022-12-10T09:16:48;7.80;58.40
51029;DHT22;37054;52.054;8.600;2022-12-10T09:19:14;7.80;58.50
51029;DHT22;37054;52.054;8.600;2022-12-10T09:21:39;7.80;58.60
51029;DHT22;37054;52.054;8.600;2022-12-10T09:24:05;7.80;58.80
51029;DHT22;37054;52.054;8.600;2022-12-10T09:26:31;7.90;58.80
51029;DHT22;37054;52.054;8.600;2022-12-10T09:28:56;8.00;58.80
51029;DHT22;37054;52.054;8.600;2022-12-10T09:31:23;8.00;58.70
51029;DHT22;37054;52.054;8.600;2022-12-10T09:33:49;8.10;58.60
51029;DHT22;37054;52.054;8.600;2022-12-10T09:36:15;8.10;58.60
51029;DHT22;37054;52.054;8.600;2022-12-10T09:38:41;8.20;58.60
51029;DHT22;37054;52.054;8.600;2022-12-10T09:53:26;8.30;58.60
51029;DHT22;37054;52.054;8.600;2022-12-10T09:55:53;8.30;58.50
51029;DHT22;37054;52.054;8.600;2022-12-10T09:58:20;8.30;58.50
51029;DHT22;37054;52.054;8.600;2022-12-10T10:00:54;8.40;58.60
51029;DHT22;37054;52.054;8.600;2022-12-10T10:03:20;8.40;58.60
51029;DHT22;37054;52.054;8.600;2022-12-10T10:05:50;8.40;58.60
51029;DHT22;37054;52.054;8.600;2022-12-10T10:10:42;8.50;58.80
51029;DHT22;37054;52.054;8.600;2022-12-10T10:15:34;8.50;58.70
51029;DHT22;37054;52.054;8.600;2022-12-10T10:18:46;8.60;58.70
51029;DHT22;37054;52.054;8.600;2022-12-10T10:20:46;8.60;58.80
51029;DHT22;37054;52.054;8.600;2022-12-10T10:23:12;8.50;59.00
51029;DHT22;37054;52.054;8.600;2022-12-10T10:25:38;8.50;59.20
51029;DHT22;37054;52.054;8.600;2022-12-10T10:28:04;8.60;59.40
51029;DHT22;37054;52.054;8.600;2022-12-10T10:30:29;8.60;59.40
51029;DHT22;37054;52.054;8.600;2022-12-10T10:32:56;8.60;59.40
51029;DHT22;37054;52.054;8.600;2022-12-10T10:35:26;8.70;59.50
51029;DHT22;37054;52.054;8.600;2022-12-10T10:37:56;8.70;59.50
51029;DHT22;37054;52.054;8.600;2022-12-10T10:40:23;8.80;59.60
51029;DHT22;37054;52.054;8.600;2022-12-10T10:42:51;8.80;59.70
51029;DHT22;37054;52.054;8.600;2022-12-10T10:48:05;8.80;59.80
51029;DHT22;37054;52.054;8.600;2022-12-10T10:50:32;8.90;59.70
51029;DHT22;37054;52.054;8.600;2022-12-10T10:53:01;8.90;59.80
51029;DHT22;37054;52.054;8.600;2022-12-10T10:55:30;9.00;59.80
51029;DHT22;37054;52.054;8.600;2022-12-10T10:57:57;9.00;59.70
51029;DHT22;37054;52.054;8.600;2022-12-10T11:00:23;9.00;59.90
51029;DHT22;37054;52.054;8.600;2022-12-10T11:02:48;9.10;60.00
51029;DHT22;37054;52.054;8.600;2022-12-10T11:05:22;9.20;60.10
51029;DHT22;37054;52.054;8.600;2022-12-10T11:07:56;9.20;60.20
51029;DHT22;37054;52.054;8.600;2022-12-10T11:10:23;9.20;60.20
51029;DHT22;37054;52.054;8.600;2022-12-10T11:12:56;9.30;60.10
51029;DHT22;37054;52.054;8.600;2022-12-10T11:17:47;9.30;60.10
51029;DHT22;37054;52.054;8.600;2022-12-10T11:22:52;9.40;59.90
51029;DHT22;37054;52.054;8.600;2022-12-10T11:30:35;9.40;59.90
51029;DHT22;37054;52.054;8.600;2022-12-10T11:43:49;9.30;59.80
51029;DHT22;37054;52.054;8.600;2022-12-10T11:46:20;9.30;59.90
51029;DHT22;37054;52.054;8.600;2022-12-10T11:49:12;9.40;60.10
51029;DHT22;37054;52.054;8.600;2022-12-10T11:51:45;9.40;60.20
51029;DHT22;37054;52.054;8.600;2022-12-10T11:56:38;9.40;60.20
51029;DHT22;37054;52.054;8.600;2022-12-10T12:04:24;9.30;59.10
51029;DHT22;37054;52.054;8.600;2022-12-10T12:09:20;9.30;59.80
51029;DHT22;37054;52.054;8.600;2022-12-10T12:14:19;9.30;59.60
51029;DHT22;37054;52.054;8.600;2022-12-10T12:19:37;9.30;59.80
51029;DHT22;37054;52.054;8.600;2022-12-10T12:22:23;9.30;59.40
51029;DHT22;37054;52.054;8.600;2022-12-10T12:24:50;9.30;59.60
51029;DHT22;37054;52.054;8.600;2022-12-10T12:27:21;9.30;59.60
51029;DHT22;37054;52.054;8.600;2022-12-10T12:29:59;9.30;59.70
51029;DHT22;37054;52.054;8.600;2022-12-10T12:35:10;9.30;59.50
51029;DHT22;37054;52.054;8.600;2022-12-10T12:37:54;9.20;59.60
51029;DHT22;37054;52.054;8.600;2022-12-10T12:40:34;9.10;59.30
51029;DHT22;37054;52.054;8.600;2022-12-10T12:43:02;9.00;59.20
51029;DHT22;37054;52.054;8.600;2022-12-10T12:47:56;8.80;60.20
51029;DHT22;37054;52.054;8.600;2022-12-10T12:51:09;8.80;60.40
51029;DHT22;37054;52.054;8.600;2022-12-10T12:53:18;8.70;60.40
51029;DHT22;37054;52.054;8.600;2022-12-10T13:01:10;8.60;59.10
51029;DHT22;37054;52.054;8.600;2022-12-10T13:03:41;8.60;59.10
51029;DHT22;37054;52.054;8.600;2022-12-10T13:06:12;8.50;59.50
51029;DHT22;37054;52.054;8.600;2022-12-10T13:08:42;8.50;59.60
51029;DHT22;37054;52.054;8.600;2022-12-10T13:13:40;8.50;59.90
51029;DHT22;37054;52.054;8.600;2022-12-10T13:18:53;8.60;60.00
51029;DHT22;37054;52.054;8.600;2022-12-10T13:21:36;8.60;60.40
51029;DHT22;37054;52.054;8.600;2022-12-10T13:24:22;8.60;60.40
51029;DHT22;37054;52.054;8.600;2022-12-10T13:32:17;8.70;60.10
51029;DHT22;37054;52.054;8.600;2022-12-10T13:34:43;8.80;60.20
51029;DHT22;37054;52.054;8.600;2022-12-10T13:39:48;8.90;60.50
51029;DHT22;37054;52.054;8.600;2022-12-10T13:45:03;8.90;60.10
51029;DHT22;37054;52.054;8.600;2022-12-10T13:47:42;8.90;60.20
51029;DHT22;37054;52.054;8.600;2022-12-10T14:07:54;8.90;59.80
51029;DHT22;37054;52.054;8.600;2022-12-10T14:10:22;8.80;59.40
51029;DHT22;37054;52.054;8.600;2022-12-10T14:12:49;8.80;59.70
51029;DHT22;37054;52.054;8.600;2022-12-10T14:17:44;8.80;60.00
51029;DHT22;37054;52.054;8.600;2022-12-10T14:20:14;8.80;60.10
51029;DHT22;37054;52.054;8.600;2022-12-10T14:22:45;8.80;60.00
51029;DHT22;37054;52.054;8.600;2022-12-10T14:25:12;8.80;59.90
51029;DHT22;37054;52.054;8.600;2022-12-10T14:27:38;8.70;59.90
51029;DHT22;37054;52.054;8.600;2022-12-10T14:30:06;8.70;59.80
51029;DHT22;37054;52.054;8.600;2022-12-10T14:32:36;8.70;59.50
51029;DHT22;37054;52.054;8.600;2022-12-10T14:35:06;8.70;59.50
51029;DHT22;37054;52.054;8.600;2022-12-10T14:37:36;8.60;59.60
51029;DHT22;37054;52.054;8.600;2022-12-10T14:40:05;8.60;59.80
51029;DHT22;37054;52.054;8.600;2022-12-10T14:42:32;8.60;59.80
51029;DHT22;37054;52.054;8.600;2022-12-10T14:45:04;8.60;59.90
51029;DHT22;37054;52.054;8.600;2022-12-10T14:47:37;8.60;59.90
51029;DHT22;37054;52.054;8.600;2022-12-10T14:50:03;8.50;59.80
51029;DHT22;37054;52.054;8.600;2022-12-10T14:52:33;8.50;59.70
51029;DHT22;37054;52.054;8.600;2022-12-10T14:55:04;8.40;59.70
51029;DHT22;37054;52.054;8.600;2022-12-10T14:57:30;8.40;59.70
51029;DHT22;37054;52.054;8.600;2022-12-10T15:02:39;8.30;59.60
51029;DHT22;37054;52.054;8.600;2022-12-10T15:05:10;8.30;59.40
51029;DHT22;37054;52.054;8.600;2022-12-10T15:07:37;8.20;59.30
51029;DHT22;37054;52.054;8.600;2022-12-10T15:10:07;8.20;59.50
51029;DHT22;37054;52.054;8.600;2022-12-10T15:12:44;8.20;59.40
51029;DHT22;37054;52.054;8.600;2022-12-10T15:15:12;8.20;59.60
51029;DHT22;37054;52.054;8.600;2022-12-10T15:17:41;8.10;59.80
51029;DHT22;37054;52.054;8.600;2022-12-10T15:20:18;8.10;59.70
51029;DHT22;37054;52.054;8.600;2022-12-10T15:22:53;8.10;59.80
51029;DHT22;37054;52.054;8.600;2022-12-10T15:25:22;8.10;59.70
51029;DHT22;37054;52.054;8.600;2022-12-10T15:27:52;8.10;59.70
51029;DHT22;37054;52.054;8.600;2022-12-10T15:30:22;8.10;59.90
51029;DHT22;37054;52.054;8.600;2022-12-10T15:32:47;8.10;60.00
51029;DHT22;37054;52.054;8.600;2022-12-10T15:35:13;8.10;60.00
51029;DHT22;37054;52.054;8.600;2022-12-10T15:37:40;8.10;60.00
51029;DHT22;37054;52.054;8.600;2022-12-10T15:40:22;8.10;60.00
51029;DHT22;37054;52.054;8.600;2022-12-10T15:42:47;8.00;60.00
51029;DHT22;37054;52.054;8.600;2022-12-10T15:45:19;8.00;59.90
51029;DHT22;37054;52.054;8.600;2022-12-10T15:47:45;8.00;59.90
51029;DHT22;37054;52.054;8.600;2022-12-10T15:50:11;8.00;59.80
51029;DHT22;37054;52.054;8.600;2022-12-10T15:52:36;8.00;59.80
51029;DHT22;37054;52.054;8.600;2022-12-10T15:55:02;8.00;59.90
51029;DHT22;37054;52.054;8.600;2022-12-10T15:57:32;7.90;60.00
51029;DHT22;37054;52.054;8.600;2022-12-10T16:00:00;8.00;60.00
51029;DHT22;37054;52.054;8.600;2022-12-10T16:04:53;7.90;60.00
51029;DHT22;37054;52.054;8.600;2022-12-10T16:07:19;8.00;59.90
51029;DHT22;37054;52.054;8.600;2022-12-10T16:09:45;7.90;59.90
51029;DHT22;37054;52.054;8.600;2022-12-10T16:12:11;7.90;59.90
51029;DHT22;37054;52.054;8.600;2022-12-10T16:14:37;7.80;60.00
51029;DHT22;37054;52.054;8.600;2022-12-10T16:17:03;7.80;59.90
51029;DHT22;37054;52.054;8.600;2022-12-10T16:19:28;7.80;59.90
51029;DHT22;37054;52.054;8.600;2022-12-10T16:21:54;7.80;59.90
51029;DHT22;37054;52.054;8.600;2022-12-10T16:24:20;7.80;59.80
51029;DHT22;37054;52.054;8.600;2022-12-10T16:26:45;7.80;59.80
51029;DHT22;37054;52.054;8.600;2022-12-10T16:29:11;7.70;59.80
51029;DHT22;37054;52.054;8.600;2022-12-10T16:31:36;7.70;59.80
51029;DHT22;37054;52.054;8.600;2022-12-10T16:34:02;7.70;59.80
51029;DHT22;37054;52.054;8.600;2022-12-10T16:36:27;7.70;59.80
51029;DHT22;37054;52.054;8.600;2022-12-10T16:38:53;7.70;60.00
51029;DHT22;37054;52.054;8.600;2022-12-10T16:41:21;7.70;60.00
51029;DHT22;37054;52.054;8.600;2022-12-10T16:43:46;7.70;60.00
51029;DHT22;37054;52.054;8.600;2022-12-10T16:46:12;7.60;59.90
51029;DHT22;37054;52.054;8.600;2022-12-10T16:48:38;7.60;59.80
51029;DHT22;37054;52.054;8.600;2022-12-10T16:51:05;7.60;59.70
51029;DHT22;37054;52.054;8.600;2022-12-10T16:53:31;7.60;60.00
51029;DHT22;37054;52.054;8.600;2022-12-10T16:56:00;7.60;60.00
51029;DHT22;37054;52.054;8.600;2022-12-10T16:58:26;7.50;59.90
51029;DHT22;37054;52.054;8.600;2022-12-10T17:00:52;7.50;60.00
51029;DHT22;37054;52.054;8.600;2022-12-10T17:03:19;7.50;60.00
51029;DHT22;37054;52.054;8.600;2022-12-10T17:05:54;7.50;59.90
51029;DHT22;37054;52.054;8.600;2022-12-10T17:08:20;7.50;59.90
51029;DHT22;37054;52.054;8.600;2022-12-10T17:10:47;7.40;59.90
51029;DHT22;37054;52.054;8.600;2022-12-10T17:16:36;7.40;60.00
51029;DHT22;37054;52.054;8.600;2022-12-10T17:19:01;7.40;60.20
51029;DHT22;37054;52.054;8.600;2022-12-10T17:21:27;7.40;60.10
51029;DHT22;37054;52.054;8.600;2022-12-10T17:23:55;7.40;60.00
51029;DHT22;37054;52.054;8.600;2022-12-10T17:26:26;7.40;60.10
51029;DHT22;37054;52.054;8.600;2022-12-10T17:28:52;7.40;60.20
51029;DHT22;37054;52.054;8.600;2022-12-10T17:31:18;7.40;60.20
51029;DHT22;37054;52.054;8.600;2022-12-10T17:33:44;7.40;60.20
51029;DHT22;37054;52.054;8.600;2022-12-10T17:36:09;7.40;60.00
51029;DHT22;37054;52.054;8.600;2022-12-10T17:38:36;7.40;59.90
51029;DHT22;37054;52.054;8.600;2022-12-10T17:41:01;7.40;60.20
51029;DHT22;37054;52.054;8.600;2022-12-10T17:43:27;7.30;60.10
51029;DHT22;37054;52.054;8.600;2022-12-10T17:45:53;7.30;60.20
51029;DHT22;37054;52.054;8.600;2022-12-10T17:48:20;7.40;60.30
51029;DHT22;37054;52.054;8.600;2022-12-10T17:50:46;7.40;60.30
51029;DHT22;37054;52.054;8.600;2022-12-10T17:53:12;7.40;60.30
51029;DHT22;37054;52.054;8.600;2022-12-10T17:55:41;7.40;60.30